KEOK

Keokuk Municipal Airport

Keokuk, Iowa, USA
METAR KEOK 201515Z AUTO 32006KT 2SM BR OVC003 03/03 A2985 RMK AO2
Observed Flight Rules
Feb-20 @ 15:15 UTC (2 hours ago) Instrument Flight Rules
Wind Visibility Clouds Conditions
320° at 6 knots 2 miles
  • Overcast at 300' AGL
  • Mist
Temperatures Readings
Current 3°C / 37°F
Dewpoint 3°C / 37°F
Humidity 100%
Altimeter 29.85" Hg
Pressure 1011 hPa
Elevation 205
METAR KEOK 201515Z AUTO 32006KT 2SM BR OVC003 03/03 A2985 RMK AO2
Observed Flight Rules
Feb-20 @ 15:15 UTC
(2 hours ago)
LIFR
Wind Visibility
320° at 6 knots 2 miles
Clouds
  • Overcast at 300' AGL
Conditions
  • Mist
Temperature Dewpoint
3°C / 37°F 3°C / 37°F
Humidity Altimeter Pressure
100% 29.85" Hg 1011 hPa